Time;durP1;ratioP1;P1;durP2;ratioP2;P2;SDS_P1;SDS_P2;PMS_P1;PMS_P2;Temp;Humidity;BMP_temperature;BMP_pressure;BME280_temperature;BME280_humidity;BME280_pressure;Samples;Min_cycle;Max_cycle;Signal;HPM_P1;HPM_P2
2022/10/09 00:01:27;;;;;;;4.83;3.57;;;11.20;99.90;;;11.38;nan;101543.31;4953636;28;20655;-64
2022/10/09 00:03:55;;;;;;;7.03;2.60;;;11.20;99.90;;;11.41;nan;101544.00;4971794;28;20683;-64
2022/10/09 00:06:28;;;;;;;5.73;3.50;;;11.20;99.90;;;11.47;nan;101538.41;4971033;28;20651;-65
2022/10/09 00:08:55;;;;;;;3.70;3.17;;;11.30;99.90;;;11.51;nan;101539.03;4955916;28;20648;-65
2022/10/09 00:11:25;;;;;;;5.30;3.47;;;11.30;99.90;;;11.34;nan;101534.00;4966797;28;20663;-65
2022/10/09 00:13:53;;;;;;;4.47;2.93;;;11.30;99.90;;;11.43;nan;101547.34;4948328;28;21261;-64
2022/10/09 00:16:22;;;;;;;5.10;3.60;;;11.20;99.90;;;11.31;nan;101532.41;4969914;28;20620;-65
2022/10/09 00:18:50;;;;;;;4.57;3.50;;;11.20;99.90;;;11.37;nan;101532.03;4970717;28;20737;-65
2022/10/09 00:21:23;;;;;;;4.50;2.90;;;11.20;99.90;;;11.40;nan;101536.22;4959797;28;20679;-64
2022/10/09 00:23:52;;;;;;;5.30;3.60;;;11.20;99.90;;;11.23;nan;101533.78;4956910;28;20644;-64
2022/10/09 00:26:19;;;;;;;5.17;2.90;;;11.20;99.90;;;11.27;nan;101525.69;4970330;28;20639;-63
2022/10/09 00:28:47;;;;;;;8.73;3.30;;;11.20;99.90;;;11.33;nan;101519.28;4971378;28;21168;-65
2022/10/09 00:31:15;;;;;;;5.00;3.47;;;11.10;99.90;;;11.37;nan;101525.97;4971914;28;20674;-64
2022/10/09 00:33:42;;;;;;;3.53;3.20;;;11.20;99.90;;;11.26;nan;101524.03;4955747;28;20660;-64
2022/10/09 00:36:17;;;;;;;3.57;3.27;;;11.20;99.90;;;11.30;nan;101522.91;4954432;28;20686;-64
2022/10/09 00:38:44;;;;;;;5.50;3.50;;;11.10;99.90;;;11.30;nan;101524.66;4971556;28;20639;-64
2022/10/09 00:41:32;;;;;;;5.70;3.03;;;11.10;99.90;;;11.24;nan;101525.03;4955651;28;20674;-65
2022/10/09 00:44:51;;;;;;;2.47;2.37;;;11.10;99.90;;;11.23;nan;101510.28;4971138;28;21015;-64
2022/10/09 00:47:35;;;;;;;2.87;2.67;;;11.00;99.90;;;11.26;nan;101518.81;4972851;28;21297;-63
2022/10/09 00:50:15;;;;;;;2.90;2.50;;;11.00;99.90;;;11.22;nan;101516.47;4935003;29;20665;-64
2022/10/09 00:52:43;;;;;;;3.10;2.53;;;11.10;99.90;;;11.12;nan;101520.53;4955337;28;20627;-65
2022/10/09 00:55:11;;;;;;;2.73;2.53;;;11.00;99.90;;;11.09;nan;101515.53;4963311;28;22693;-65
2022/10/09 00:57:39;;;;;;;2.80;2.60;;;10.90;99.90;;;11.12;nan;101521.38;4974772;28;20615;-64
2022/10/09 01:00:10;;;;;;;3.27;3.00;;;10.90;99.90;;;11.14;nan;101521.31;4973263;28;20643;-65
2022/10/09 01:02:38;;;;;;;3.07;2.83;;;10.90;99.90;;;11.08;nan;101521.66;4957034;28;20641;-65
2022/10/09 01:05:07;;;;;;;2.40;2.30;;;10.90;99.90;;;10.94;nan;101523.31;4974935;28;20627;-65
2022/10/09 01:08:01;;;;;;;2.57;2.27;;;10.80;99.90;;;10.96;nan;101519.78;4958329;28;20627;-65
2022/10/09 01:10:46;;;;;;;2.70;2.50;;;10.80;99.90;;;10.90;nan;101521.81;4957831;28;21246;-64
2022/10/09 01:14:06;;;;;;;3.20;3.00;;;10.80;99.90;;;10.89;nan;101520.16;4974027;28;20630;-65
2022/10/09 01:17:00;;;;;;;4.27;3.17;;;10.70;99.90;;;10.96;nan;101514.56;4955128;28;20672;-65
2022/10/09 01:20:00;;;;;;;4.33;3.10;;;10.80;99.90;;;10.87;nan;101513.34;4942070;28;20647;-65
2022/10/09 01:22:49;;;;;;;3.60;3.03;;;10.70;99.90;;;10.88;nan;101505.41;4958495;28;20615;-64
2022/10/09 01:25:34;;;;;;;4.47;3.47;;;10.60;99.90;;;10.86;nan;101509.06;4964464;28;21052;-64
2022/10/09 01:28:05;;;;;;;8.07;3.23;;;10.60;99.90;;;10.74;nan;101509.75;4973606;28;20625;-63
2022/10/09 01:30:34;;;;;;;4.40;3.23;;;10.60;99.90;;;10.63;nan;101502.56;4957448;28;20685;-64
2022/10/09 01:33:02;;;;;;;7.33;3.50;;;10.60;99.90;;;10.68;nan;101503.16;4974201;28;20947;-64
2022/10/09 01:35:30;;;;;;;4.47;3.40;;;10.50;99.90;;;10.76;nan;101507.91;4956248;28;20675;-66
2022/10/09 01:37:58;;;;;;;4.40;3.13;;;10.60;99.90;;;10.83;nan;101502.25;4957385;28;21058;-65
2022/10/09 01:40:27;;;;;;;3.00;2.80;;;10.60;99.90;;;10.71;nan;101499.53;4974092;28;20649;-65
2022/10/09 01:42:55;;;;;;;4.90;3.30;;;10.60;99.90;;;10.66;nan;101494.56;4956618;28;20638;-64
2022/10/09 01:45:22;;;;;;;2.70;2.50;;;10.50;99.90;;;10.66;nan;101502.41;4953454;28;20652;-65
2022/10/09 01:47:49;;;;;;;3.37;3.07;;;10.50;99.90;;;10.55;nan;101488.28;4969885;28;20662;-65
2022/10/09 01:50:28;;;;;;;3.53;2.90;;;10.50;99.90;;;10.57;nan;101491.63;4955031;28;20671;-65
2022/10/09 01:53:03;;;;;;;5.40;3.03;;;10.50;99.90;;;10.52;nan;101486.69;4957246;28;20639;-65
2022/10/09 01:56:10;;;;;;;3.93;2.93;;;10.50;99.90;;;10.49;nan;101488.63;4957136;28;20679;-64
2022/10/09 01:59:01;;;;;;;4.57;3.10;;;10.40;99.90;;;10.50;nan;101485.13;4898598;29;20702;-64
2022/10/09 02:01:38;;;;;;;4.80;2.77;;;10.40;99.90;;;10.34;nan;101479.94;4883650;29;20676;-65
2022/10/09 02:04:09;;;;;;;3.47;3.17;;;10.30;99.90;;;10.38;nan;101481.44;4933695;28;20635;-65
2022/10/09 02:06:39;;;;;;;3.20;2.80;;;10.30;99.90;;;10.30;nan;101480.19;4957459;28;20615;-65
2022/10/09 02:09:12;;;;;;;3.53;3.20;;;10.30;99.90;;;10.31;nan;101477.50;4956786;28;20669;-64
2022/10/09 02:11:43;;;;;;;7.13;3.30;;;10.30;99.90;;;10.32;nan;101476.56;4957290;28;20611;-64
2022/10/09 02:14:10;;;;;;;4.40;4.00;;;10.20;99.90;;;10.30;nan;101470.59;4955561;28;22238;-64
2022/10/09 02:16:41;;;;;;;6.33;3.60;;;10.20;99.90;;;10.32;nan;101471.34;4962954;28;20652;-64
2022/10/09 02:19:23;;;;;;;4.13;3.27;;;10.20;99.90;;;10.29;nan;101470.66;4955865;28;21102;-64
2022/10/09 02:22:29;;;;;;;4.10;3.70;;;10.10;99.90;;;10.18;nan;101462.66;4957158;28;20628;-64
2022/10/09 02:24:58;;;;;;;8.63;3.77;;;10.10;99.90;;;10.16;nan;101469.72;4960847;28;20664;-64
2022/10/09 02:27:26;;;;;;;5.40;3.60;;;10.10;99.90;;;10.02;nan;101473.06;4971765;28;20622;-64
2022/10/09 02:29:54;;;;;;;5.83;3.80;;;10.00;99.90;;;10.05;nan;101452.88;4956178;28;20681;-64
2022/10/09 02:32:21;;;;;;;6.73;4.27;;;10.10;99.90;;;10.10;nan;101461.31;4956606;28;21003;-64
2022/10/09 02:34:48;;;;;;;6.37;3.93;;;10.00;99.90;;;10.15;nan;101466.25;4955575;28;20684;-63
2022/10/09 02:37:15;;;;;;;4.80;3.20;;;10.00;99.90;;;10.10;nan;101457.81;4968776;28;20643;-65
2022/10/09 02:39:42;;;;;;;8.33;4.63;;;10.00;99.90;;;10.06;nan;101448.50;4967456;28;23290;-63
2022/10/09 02:42:09;;;;;;;8.50;4.17;;;9.90;99.90;;;10.08;nan;101450.09;4971938;28;20638;-64
2022/10/09 02:44:36;;;;;;;5.20;4.00;;;9.90;99.90;;;10.19;nan;101451.28;4973099;28;20649;-65
2022/10/09 02:47:03;;;;;;;6.00;3.93;;;10.00;99.90;;;10.14;nan;101457.59;4955783;28;21201;-64
2022/10/09 02:49:30;;;;;;;4.00;3.60;;;10.00;99.90;;;10.15;nan;101450.63;4971592;28;21006;-64
2022/10/09 02:51:57;;;;;;;4.23;3.83;;;9.90;99.90;;;9.94;nan;101451.81;4972567;28;20630;-64
2022/10/09 02:54:24;;;;;;;4.10;3.70;;;9.90;99.90;;;10.05;nan;101455.47;4969896;28;20674;-64
2022/10/09 02:56:51;;;;;;;6.50;4.03;;;10.00;99.90;;;9.92;nan;101462.28;4971068;28;20643;-64
2022/10/09 02:59:18;;;;;;;3.57;3.27;;;9.90;99.90;;;9.91;nan;101458.03;4954776;28;20657;-64
2022/10/09 03:01:45;;;;;;;3.70;3.40;;;9.90;99.90;;;9.84;nan;101458.44;4971902;28;20636;-65
2022/10/09 03:04:12;;;;;;;5.03;4.13;;;9.90;99.90;;;9.85;nan;101452.31;4956258;28;20628;-65
2022/10/09 03:06:39;;;;;;;6.00;3.93;;;9.80;99.90;;;9.92;nan;101456.28;4972167;28;20672;-65
2022/10/09 03:09:06;;;;;;;5.13;3.60;;;9.80;99.90;;;9.88;nan;101452.97;4971734;28;20638;-65
2022/10/09 03:11:33;;;;;;;6.93;4.40;;;9.80;99.90;;;9.83;nan;101448.97;4971629;28;20657;-65
2022/10/09 03:13:59;;;;;;;4.53;4.13;;;9.80;99.90;;;9.77;nan;101441.47;4972544;28;20621;-64
2022/10/09 03:16:27;;;;;;;4.53;4.13;;;9.80;99.90;;;9.64;nan;101443.09;4966669;28;20639;-64
2022/10/09 03:18:54;;;;;;;5.90;4.00;;;9.80;99.90;;;9.63;nan;101452.66;4953359;28;20631;-64
2022/10/09 03:21:25;;;;;;;7.20;3.87;;;9.70;99.90;;;9.61;nan;101446.69;4972230;28;20646;-65
2022/10/09 03:23:53;;;;;;;5.27;3.93;;;9.60;99.90;;;9.57;nan;101449.53;4972292;28;20612;-64
2022/10/09 03:26:24;;;;;;;6.13;4.30;;;9.60;99.90;;;9.65;nan;101452.56;4971262;28;20690;-65
2022/10/09 03:28:53;;;;;;;4.00;3.70;;;9.60;99.90;;;9.47;nan;101453.59;4972416;28;21172;-64
2022/10/09 03:31:24;;;;;;;5.87;3.90;;;9.60;99.90;;;9.61;nan;101451.06;5026487;23;20698;-63
2022/10/09 03:34:12;;;;;;;4.30;3.70;;;9.60;99.90;;;9.48;nan;101455.25;5031352;28;20641;-63
2022/10/09 03:36:39;;;;;;;3.23;3.03;;;9.50;99.90;;;9.44;nan;101443.31;5029646;28;20635;-64
2022/10/09 03:39:05;;;;;;;4.03;3.53;;;9.50;99.90;;;9.49;nan;101455.19;5030490;28;20711;-63
2022/10/09 03:41:32;;;;;;;3.67;3.37;;;9.50;99.90;;;9.49;nan;101451.72;5030222;28;20684;-63
2022/10/09 03:43:59;;;;;;;8.20;3.97;;;9.50;99.90;;;9.48;nan;101447.44;5030975;28;21004;-63
2022/10/09 03:46:27;;;;;;;3.87;3.57;;;9.50;99.90;;;9.54;nan;101452.34;5031820;28;20637;-64
2022/10/09 03:48:54;;;;;;;5.30;3.70;;;9.50;99.90;;;9.36;nan;101448.97;5018041;28;20677;-64
2022/10/09 03:51:21;;;;;;;7.40;3.87;;;9.40;99.90;;;9.56;nan;101453.09;5010520;28;21027;-63
2022/10/09 03:53:47;;;;;;;5.87;4.00;;;9.50;99.90;;;9.53;nan;101453.25;5010379;28;20631;-63
2022/10/09 03:56:14;;;;;;;4.13;3.43;;;9.50;99.90;;;9.51;nan;101450.72;5011083;28;20731;-63
2022/10/09 03:58:41;;;;;;;6.30;3.70;;;9.50;99.90;;;9.44;nan;101465.00;5011301;28;20668;-64
2022/10/09 04:01:08;;;;;;;4.03;3.60;;;9.50;99.90;;;9.39;nan;101461.81;5025975;28;20669;-64
2022/10/09 04:03:35;;;;;;;6.80;3.60;;;9.40;99.90;;;9.44;nan;101465.00;5029952;28;20629;-63
2022/10/09 04:06:02;;;;;;;7.00;3.63;;;9.40;99.90;;;9.49;nan;101465.59;5029593;28;20643;-63
2022/10/09 04:08:29;;;;;;;4.67;3.77;;;9.40;99.90;;;9.39;nan;101462.66;5023124;28;20635;-63
2022/10/09 04:10:58;;;;;;;3.23;3.03;;;9.40;99.90;;;9.39;nan;101462.66;5010892;28;21263;-64
2022/10/09 04:13:25;;;;;;;5.23;3.70;;;9.30;99.90;;;9.35;nan;101460.28;5010659;28;20617;-63
2022/10/09 04:15:53;;;;;;;6.13;3.70;;;9.30;99.90;;;9.34;nan;101466.44;5014335;28;20679;-63
2022/10/09 04:18:20;;;;;;;6.10;3.80;;;9.30;99.90;;;9.19;nan;101462.88;5009209;28;20618;-64
2022/10/09 04:20:50;;;;;;;4.60;3.83;;;9.30;99.90;;;9.35;nan;101465.50;5010531;28;20668;-63
2022/10/09 04:23:18;;;;;;;4.03;3.43;;;9.30;99.90;;;9.34;nan;101459.47;5010993;28;20628;-62
2022/10/09 04:25:45;;;;;;;7.33;3.77;;;9.20;99.90;;;9.34;nan;101458.63;5011171;28;20637;-64
2022/10/09 04:28:12;;;;;;;4.20;3.80;;;9.20;99.90;;;9.38;nan;101455.78;5014122;28;20630;-63
2022/10/09 04:30:39;;;;;;;7.67;4.10;;;9.20;99.90;;;9.40;nan;101458.28;5014312;28;20763;-63
2022/10/09 04:33:06;;;;;;;7.43;4.00;;;9.30;99.90;;;9.34;nan;101454.25;4996607;28;20632;-64
2022/10/09 04:35:43;;;;;;;9.60;5.17;;;9.30;99.90;;;9.31;nan;101453.56;4994660;28;20663;-64
2022/10/09 04:38:10;;;;;;;8.17;4.57;;;9.20;99.90;;;9.22;nan;101452.28;4994757;28;20684;-63
2022/10/09 04:40:37;;;;;;;4.70;3.97;;;9.20;99.90;;;9.27;nan;101454.66;5013513;28;20720;-63
2022/10/09 04:43:04;;;;;;;6.90;4.90;;;9.10;99.90;;;9.12;nan;101450.25;5014370;28;20616;-62
2022/10/09 04:45:31;;;;;;;5.53;4.33;;;9.10;99.90;;;9.04;nan;101448.06;5020460;28;20646;-63
2022/10/09 04:47:58;;;;;;;10.90;4.00;;;9.10;99.90;;;9.10;nan;101446.91;5033673;28;20634;-61
2022/10/09 04:50:25;;;;;;;4.17;3.77;;;9.10;99.90;;;9.16;nan;101446.56;5021640;28;20657;-62
2022/10/09 04:52:52;;;;;;;2.90;2.60;;;9.10;99.90;;;9.21;nan;101453.22;5014904;28;20626;-63
2022/10/09 04:55:19;;;;;;;3.67;3.17;;;9.10;99.90;;;9.21;nan;101458.44;5023890;28;20674;-63
2022/10/09 04:57:48;;;;;;;3.63;3.13;;;9.10;99.90;;;9.16;nan;101455.22;5033351;28;20622;-63
2022/10/09 05:00:15;;;;;;;4.27;3.77;;;9.00;99.90;;;9.02;nan;101446.47;5028090;28;20770;-63
2022/10/09 05:02:42;;;;;;;4.33;3.87;;;9.00;99.90;;;9.02;nan;101444.72;5031621;28;20656;-64
2022/10/09 05:05:08;;;;;;;7.23;4.90;;;9.00;99.90;;;9.00;nan;101443.09;5019817;28;21382;-64
2022/10/09 05:07:35;;;;;;;5.90;4.63;;;9.00;99.90;;;9.02;nan;101441.25;4999746;28;20632;-63
2022/10/09 05:10:03;;;;;;;7.57;4.50;;;9.00;99.90;;;9.00;nan;101443.09;5013701;28;20658;-63
2022/10/09 05:12:30;;;;;;;4.37;3.93;;;9.00;99.90;;;8.84;nan;101448.25;5021721;28;21230;-63
2022/10/09 05:14:57;;;;;;;5.17;4.67;;;8.90;99.90;;;8.93;nan;101447.78;5022842;28;20668;-64
2022/10/09 05:17:24;;;;;;;9.70;3.73;;;8.90;99.90;;;8.97;nan;101451.06;5014644;28;21234;-64
2022/10/09 05:19:51;;;;;;;6.37;4.10;;;8.90;99.90;;;8.86;nan;101440.41;5013146;28;21185;-63
2022/10/09 05:22:18;;;;;;;10.53;4.50;;;8.90;99.90;;;8.88;nan;101447.19;5013511;28;20623;-63
2022/10/09 05:24:45;;;;;;;4.90;3.70;;;8.80;99.90;;;8.90;nan;101452.31;5012987;28;20637;-63
2022/10/09 05:27:12;;;;;;;4.40;4.00;;;8.80;99.90;;;9.00;nan;101454.38;5001874;28;20638;-64
2022/10/09 05:29:39;;;;;;;3.07;2.77;;;8.90;99.90;;;8.95;nan;101451.16;4993537;28;21006;-63
2022/10/09 05:32:06;;;;;;;4.03;3.70;;;8.80;99.90;;;8.86;nan;101449.00;5011550;28;21017;-63
2022/10/09 05:34:34;;;;;;;4.60;4.13;;;8.80;99.90;;;8.80;nan;101449.34;5024003;28;20653;-63
2022/10/09 05:37:01;;;;;;;7.20;4.60;;;8.80;99.90;;;8.89;nan;101455.81;5008993;28;20661;-60
2022/10/09 05:39:28;;;;;;;5.77;4.47;;;8.80;99.90;;;8.78;nan;101455.53;5006951;28;20644;-63
2022/10/09 05:41:55;;;;;;;4.33;3.60;;;8.80;99.90;;;8.90;nan;101468.75;5009309;28;20649;-64
2022/10/09 05:44:22;;;;;;;6.37;4.30;;;8.80;99.90;;;8.84;nan;101463.88;5023465;28;20636;-63
2022/10/09 05:46:49;;;;;;;6.47;4.00;;;8.80;99.90;;;8.79;nan;101465.03;5033765;28;20615;-63
2022/10/09 05:49:16;;;;;;;4.70;4.10;;;8.80;99.90;;;8.87;nan;101468.09;5030423;28;20637;-63
2022/10/09 05:51:43;;;;;;;5.23;3.93;;;8.80;99.90;;;8.97;nan;101454.50;5012982;28;20777;-63
2022/10/09 05:54:15;;;;;;;7.40;3.80;;;8.80;99.90;;;8.98;nan;101464.03;4995082;28;20627;-63
2022/10/09 05:56:43;;;;;;;4.70;3.87;;;8.90;99.90;;;9.03;nan;101455.97;5008658;28;21336;-63
2022/10/09 05:59:18;;;;;;;5.53;3.90;;;9.00;99.90;;;9.10;nan;101458.16;4986497;28;20660;-63
2022/10/09 06:01:49;;;;;;;7.80;4.73;;;9.00;99.90;;;8.93;nan;101452.13;5009001;28;20691;-63
2022/10/09 06:04:20;;;;;;;5.80;4.30;;;9.00;99.90;;;9.23;nan;101461.78;5011731;28;21181;-62
2022/10/09 06:06:48;;;;;;;6.43;4.30;;;9.10;99.90;;;9.13;nan;101464.97;5014858;28;20633;-63
2022/10/09 06:09:17;;;;;;;5.90;4.43;;;9.00;99.90;;;9.14;nan;101458.81;5033147;28;21202;-63
2022/10/09 06:11:44;;;;;;;6.70;4.30;;;9.10;99.90;;;9.16;nan;101460.44;5033449;28;20644;-62
2022/10/09 06:14:12;;;;;;;10.37;5.80;;;9.10;99.90;;;9.26;nan;101461.63;5024313;28;20638;-58
2022/10/09 06:16:42;;;;;;;5.53;4.43;;;9.20;99.90;;;9.43;nan;101463.34;5032065;28;20728;-64
2022/10/09 06:19:13;;;;;;;7.23;4.33;;;9.20;99.90;;;9.83;nan;101467.19;5031935;28;20604;-63
2022/10/09 06:21:40;;;;;;;5.87;4.60;;;9.40;99.90;;;11.02;nan;101469.78;4990557;28;20708;-63
2022/10/09 06:24:14;;;;;;;5.50;4.40;;;10.00;99.90;;;12.27;nan;101461.78;4993530;28;20651;-64
2022/10/09 06:26:41;;;;;;;5.20;4.10;;;10.80;99.90;;;13.53;nan;101461.81;5008940;28;20709;-63
2022/10/09 06:29:08;;;;;;;6.13;3.97;;;11.70;99.90;;;14.81;nan;101475.06;5022147;28;21176;-63
2022/10/09 06:31:35;;;;;;;6.03;4.10;;;12.60;99.90;;;15.71;nan;101470.53;5030594;28;20675;-64
2022/10/09 06:34:03;;;;;;;5.00;4.23;;;13.50;99.90;;;16.25;nan;101459.94;5031711;28;20609;-63
2022/10/09 06:36:33;;;;;;;8.63;4.13;;;14.20;99.90;;;16.83;nan;101480.50;5031193;28;20668;-63
2022/10/09 06:39:04;;;;;;;4.43;3.90;;;14.80;99.90;;;17.22;nan;101470.13;5018647;28;20634;-63
2022/10/09 06:41:31;;;;;;;5.80;4.27;;;15.30;99.90;;;18.00;nan;101471.06;5020290;28;20661;-64
2022/10/09 06:44:04;;;;;;;6.63;4.60;;;15.80;99.90;;;18.82;nan;101480.22;5014796;28;20621;-63
2022/10/09 06:46:39;;;;;;;7.33;4.53;;;16.30;99.90;;;19.93;nan;101473.06;5013948;28;20639;-63
2022/10/09 06:49:08;;;;;;;6.77;4.13;;;17.10;99.90;;;20.25;nan;101472.56;5029236;28;21163;-60
2022/10/09 06:51:35;;;;;;;5.93;3.93;;;17.60;99.90;;;20.61;nan;101471.53;4996186;28;20844;-63
2022/10/09 06:54:08;;;;;;;5.67;4.50;;;18.20;99.90;;;21.39;nan;101476.66;4994315;28;21013;-63
2022/10/09 06:56:35;;;;;;;5.60;4.33;;;18.70;99.90;;;22.02;nan;101477.03;4984767;28;21052;-62
2022/10/09 06:59:05;;;;;;;5.00;4.37;;;19.20;99.30;;;22.37;nan;101474.06;5016318;28;20643;-63
2022/10/09 07:01:32;;;;;;;7.00;4.87;;;19.50;98.00;;;22.85;nan;101477.72;5032595;28;20645;-63
2022/10/09 07:04:08;;;;;;;5.47;4.77;;;19.90;96.70;;;23.28;nan;101484.41;4998016;28;20661;-63
2022/10/09 07:06:42;;;;;;;7.07;4.40;;;20.30;95.60;;;23.89;nan;101485.28;4990765;28;20645;-63
2022/10/09 07:09:12;;;;;;;5.40;4.43;;;20.90;94.20;;;23.99;nan;101481.59;4991410;28;21182;-63
2022/10/09 07:11:43;;;;;;;5.00;4.50;;;21.20;92.70;;;23.56;nan;101485.66;5022352;28;20664;-63
2022/10/09 07:14:12;;;;;;;4.57;4.13;;;21.30;91.40;;;24.40;nan;101481.16;5031223;28;21416;-63
2022/10/09 07:16:44;;;;;;;7.63;5.03;;;21.60;90.60;;;24.60;nan;101482.28;5012497;28;20661;-63
2022/10/09 07:19:13;;;;;;;5.67;4.93;;;21.90;89.60;;;24.55;nan;101479.31;5030968;28;20624;-63
2022/10/09 07:21:44;;;;;;;4.60;4.20;;;22.00;88.50;;;25.09;nan;101485.31;5030574;28;20657;-62
2022/10/09 07:24:12;;;;;;;4.27;3.87;;;22.30;87.20;;;25.96;nan;101479.03;5011301;28;20632;-63
2022/10/09 07:26:43;;;;;;;5.13;4.63;;;22.80;84.80;;;26.37;nan;101489.13;5008788;28;20644;-63
2022/10/09 07:29:13;;;;;;;4.47;4.07;;;23.20;83.00;;;27.30;nan;101486.94;5009388;28;20622;-63
2022/10/09 07:31:40;;;;;;;6.43;4.80;;;23.90;80.00;;;28.07;nan;101482.09;5010431;28;20700;-63
2022/10/09 07:34:07;;;;;;;5.30;3.60;;;24.50;78.00;;;28.82;nan;101484.41;4994983;28;20630;-63
2022/10/09 07:36:34;;;;;;;8.80;4.50;;;25.10;75.00;;;29.35;nan;101475.19;5024761;28;20718;-63
2022/10/09 07:39:03;;;;;;;4.33;3.77;;;25.60;72.30;;;29.89;nan;101478.28;5006630;28;20701;-61
2022/10/09 07:41:30;;;;;;;4.20;3.90;;;26.00;70.30;;;30.22;nan;101478.03;5007278;28;20661;-63
2022/10/09 07:43:57;;;;;;;4.00;3.80;;;26.40;68.20;;;29.80;nan;101474.19;4993502;28;20624;-64
2022/10/09 07:46:27;;;;;;;3.83;3.63;;;26.70;66.10;;;30.46;nan;101471.06;5021074;28;20636;-64
2022/10/09 07:48:58;;;;;;;3.93;3.60;;;27.10;64.10;;;31.65;nan;101479.53;5014027;28;21000;-64
2022/10/09 07:51:28;;;;;;;3.87;3.57;;;27.70;63.00;;;32.52;nan;101470.78;5016877;28;20658;-63
2022/10/09 07:53:56;;;;;;;5.23;4.20;;;28.20;60.80;;;33.01;nan;101469.50;4994062;28;20637;-64
2022/10/09 07:56:32;;;;;;;5.53;3.83;;;28.50;60.10;;;32.89;nan;101469.47;5001897;28;20745;-64
2022/10/09 07:59:02;;;;;;;4.27;4.07;;;28.80;58.90;;;33.51;nan;101460.56;5011347;28;20618;-64
2022/10/09 08:01:31;;;;;;;3.57;3.37;;;29.20;58.30;;;34.75;nan;101473.03;4998212;28;20717;-64
2022/10/09 08:04:00;;;;;;;4.37;3.50;;;29.90;56.80;;;35.14;nan;101470.34;5009857;28;20636;-67
2022/10/09 08:06:27;;;;;;;3.63;3.43;;;30.30;55.90;;;36.04;nan;101474.06;5010344;28;20638;-66
2022/10/09 08:08:57;;;;;;;3.83;3.57;;;30.80;54.90;;;35.43;nan;101463.63;5010679;28;21400;-66
2022/10/09 08:11:26;;;;;;;3.63;3.43;;;30.90;53.90;;;36.25;nan;101470.44;5009950;28;20654;-67
2022/10/09 08:13:52;;;;;;;3.57;3.27;;;31.20;53.30;;;37.04;nan;101459.56;5010968;28;20625;-68
2022/10/09 08:16:22;;;;;;;3.93;3.63;;;31.70;52.40;;;37.88;nan;101455.53;5011091;28;21255;-67
2022/10/09 08:18:55;;;;;;;4.10;3.80;;;32.20;51.50;;;37.83;nan;101452.78;5014042;28;20621;-68
2022/10/09 08:21:22;;;;;;;3.87;3.43;;;32.50;50.90;;;38.65;nan;101451.66;5002220;28;20661;-66
2022/10/09 08:23:53;;;;;;;3.63;3.33;;;33.00;50.30;;;39.10;nan;101446.06;5002971;28;20627;-66
2022/10/09 08:26:22;;;;;;;3.97;3.70;;;33.30;49.30;;;39.10;nan;101448.78;4990974;28;20638;-63
2022/10/09 08:29:01;;;;;;;3.47;3.20;;;33.40;48.70;;;38.46;nan;101442.44;5012459;28;20646;-63
2022/10/09 08:31:30;;;;;;;4.43;4.00;;;33.50;48.40;;;38.40;nan;101438.09;5006414;28;20680;-63
2022/10/09 08:34:01;;;;;;;3.67;3.43;;;33.60;48.20;;;39.55;nan;101442.31;4993295;28;20638;-63
2022/10/09 08:36:29;;;;;;;3.73;3.50;;;34.20;47.50;;;39.93;nan;101446.94;5018122;28;20672;-63
2022/10/09 08:38:57;;;;;;;3.37;3.10;;;34.50;47.00;;;39.94;nan;101436.84;5004372;28;20638;-63
2022/10/09 08:41:45;;;;;;;3.67;3.37;;;34.70;46.60;;;41.37;nan;101435.88;5009848;28;20650;-62
2022/10/09 08:44:30;;;;;;;3.50;3.20;;;35.30;46.20;;;42.44;nan;101440.16;4992290;28;20625;-63
2022/10/09 08:47:12;;;;;;;3.40;3.20;;;35.90;45.20;;;42.56;nan;101436.13;5028601;28;20649;-64
2022/10/09 08:50:07;;;;;;;4.03;3.63;;;36.10;44.60;;;43.19;nan;101435.06;5009480;28;20685;-65
2022/10/09 08:53:02;;;;;;;6.70;5.23;;;36.70;43.70;;;43.81;nan;101438.88;5009153;28;20646;-64
2022/10/09 08:55:35;;;;;;;4.37;3.97;;;37.10;43.40;;;44.86;nan;101442.72;4999618;28;20638;-64
2022/10/09 08:58:05;;;;;;;3.27;3.13;;;37.70;42.90;;;45.40;nan;101438.59;5013387;28;20658;-63
2022/10/09 09:00:46;;;;;;;5.83;3.33;;;37.90;42.30;;;45.77;nan;101437.16;5011199;28;20712;-65
2022/10/09 09:03:56;;;;;;;3.53;3.33;;;38.20;41.90;;;46.22;nan;101430.06;5029668;28;21289;-63
2022/10/09 09:06:46;;;;;;;3.90;3.57;;;38.60;41.60;;;45.48;nan;101417.66;5029790;28;20633;-63
2022/10/09 09:09:35;;;;;;;3.40;3.20;;;38.10;41.60;;;46.11;nan;101415.00;5011557;28;20642;-63
2022/10/09 09:12:18;;;;;;;3.70;3.50;;;38.40;41.40;;;46.87;nan;101426.06;5031097;28;20659;-63
2022/10/09 09:15:08;;;;;;;3.53;3.33;;;39.10;40.90;;;47.36;nan;101414.19;5017057;28;20625;-63
2022/10/09 09:18:32;;;;;;;4.97;3.43;;;39.70;40.30;;;47.13;nan;101401.88;5016535;28;20666;-63
2022/10/09 09:21:10;;;;;;;3.40;3.20;;;40.00;40.10;;;46.83;nan;101410.16;5008736;28;20741;-64
2022/10/09 09:23:43;;;;;;;5.53;3.37;;;39.70;40.00;;;47.08;nan;101402.88;5011642;28;21001;-64
2022/10/09 09:26:29;;;;;;;3.30;3.10;;;39.90;39.80;;;47.76;nan;101406.22;5010799;28;20642;-64
2022/10/09 09:29:01;;;;;;;4.53;4.23;;;40.30;39.60;;;48.55;nan;101397.47;5011543;28;21185;-63
2022/10/09 09:31:34;;;;;;;4.47;4.17;;;40.70;39.20;;;48.76;nan;101395.38;5015853;23;20853;-62
2022/10/09 09:34:10;;;;;;;4.40;4.03;;;40.90;39.10;;;48.58;nan;101391.25;4991537;28;20649;-64
2022/10/09 09:36:54;;;;;;;3.70;3.50;;;40.90;38.90;;;48.80;nan;101388.81;4989440;28;21062;-64
2022/10/09 09:39:33;;;;;;;6.93;3.87;;;40.90;39.40;;;49.12;nan;101370.34;4972341;28;21179;-64
2022/10/09 09:42:20;;;;;;;4.50;4.20;;;41.10;38.70;;;47.68;nan;101362.84;4941054;29;21188;-63
2022/10/09 09:45:02;;;;;;;3.67;3.37;;;40.90;38.40;;;48.26;nan;101363.31;4937922;28;20616;-64
2022/10/09 09:47:53;;;;;;;4.50;4.20;;;41.00;38.60;;;49.14;nan;101356.13;4955304;28;20634;-64
2022/10/09 09:50:31;;;;;;;4.60;4.20;;;41.30;38.50;;;49.72;nan;101359.03;4936820;28;20640;-62
2022/10/09 09:53:30;;;;;;;3.53;3.27;;;41.70;38.30;;;49.89;nan;101357.09;4972513;28;20973;-65
2022/10/09 09:55:58;;;;;;;3.53;3.23;;;42.00;37.70;;;48.59;nan;101354.06;4955458;28;21026;-63
2022/10/09 09:58:43;;;;;;;3.30;3.00;;;41.60;37.40;;;47.54;nan;101335.47;4955882;28;21092;-65
2022/10/09 10:01:25;;;;;;;3.47;3.17;;;41.40;37.70;;;48.64;nan;101342.78;4971634;28;20670;-65
2022/10/09 10:03:56;;;;;;;2.90;2.80;;;41.20;37.60;;;48.65;nan;101342.41;4971316;28;20630;-64
2022/10/09 10:06:40;;;;;;;2.80;2.60;;;41.10;37.40;;;48.78;nan;101329.34;4972874;28;20665;-64
2022/10/09 10:09:16;;;;;;;2.40;2.30;;;41.00;37.10;;;49.20;nan;101327.84;4973084;28;20771;-64
2022/10/09 10:11:57;;;;;;;2.70;2.53;;;41.10;37.20;;;49.17;nan;101316.69;4955760;28;20725;-66
2022/10/09 10:14:25;;;;;;;2.50;2.40;;;41.30;37.00;;;46.06;nan;101315.88;4956347;28;21112;-67
2022/10/09 10:16:55;;;;;;;4.70;2.30;;;40.10;37.00;;;44.66;nan;101302.88;4973176;28;20726;-67
2022/10/09 10:19:33;;;;;;;2.97;2.80;;;38.90;37.00;;;46.58;nan;101310.91;4954949;28;20682;-68
2022/10/09 10:22:06;;;;;;;2.50;2.40;;;39.20;37.40;;;45.83;nan;101297.97;4970252;28;20717;-67
2022/10/09 10:24:40;;;;;;;3.80;3.50;;;39.00;37.20;;;44.13;nan;101289.28;4954516;28;20624;-67
2022/10/09 10:27:27;;;;;;;2.40;2.20;;;38.20;37.60;;;41.60;nan;101287.03;4955801;28;20639;-67
2022/10/09 10:30:00;;;;;;;2.60;2.07;;;37.00;38.10;;;38.69;nan;101268.13;4953918;28;20647;-67
2022/10/09 10:32:58;;;;;;;2.20;2.10;;;35.20;38.60;;;34.17;nan;101258.66;4940399;28;20635;-67
2022/10/09 10:35:29;;;;;;;4.00;1.97;;;32.70;40.10;;;32.79;nan;101255.75;4954388;28;21105;-66
2022/10/09 10:39:04;;;;;;;1.70;1.60;;;30.60;42.00;;;28.89;nan;101246.97;4956338;28;20747;-67
2022/10/09 10:41:38;;;;;;;5.67;1.77;;;28.50;44.20;;;26.37;nan;101237.59;4871360;29;20667;-67
2022/10/09 10:44:22;;;;;;;3.03;1.70;;;26.20;47.00;;;24.87;nan;101242.50;4879825;29;20635;-66
2022/10/09 10:46:58;;;;;;;3.40;2.20;;;24.80;48.40;;;23.68;nan;101234.63;4920645;28;20628;-67
2022/10/09 10:49:26;;;;;;;10.40;7.40;;;23.40;50.00;;;22.82;nan;101235.91;4972658;28;20636;-62
2022/10/09 10:52:32;;;;;;;10.83;6.63;;;22.50;51.30;;;22.33;nan;101240.59;4971945;28;20652;-62
2022/10/09 10:55:43;;;;;;;2.10;1.90;;;21.90;52.70;;;21.15;nan;101237.69;4973528;28;20628;-65